Pompeii, Michigan
Current Conditions -  °F | °C
As of 9:11 AM on Monday 24 Nov 2014 (Local Time) from KAMN Reporting Station
Overcast Overcast  
Wind Chill: 50°   Ceiling: 800
Heat Index: 50°   Visibility: 10mi
Dew Point: 49°   Wind: 12mph
Humidity: 97%   Direction: 200°SSW
Pressure: 29.06"   Gusts: 18mph
Location:  43.18°N, 84.6°W
Report Text: KAMN 241411Z AUTO 20010G16KT 10SM OVC008 10/10 A2906 RMK AO2 T01000095
Loading
Personal Weather Stations






























Interactive Weather Map New forecast layout! Learn more

10-Day Weather Forecast

Advertisements
Track Severe Weather on mobile